createdAt,value
2019-05-22T00:01:51.375Z,99184.23
2019-05-22T00:04:30.154Z,99184.90
2019-05-22T00:07:00.885Z,99186.03
2019-05-22T00:09:44.015Z,99186.19
2019-05-22T00:12:20.727Z,99192.64
2019-05-22T00:14:52.774Z,99191.52
2019-05-22T00:17:30.183Z,99190.59
2019-05-22T00:19:58.856Z,99198.70
2019-05-22T00:22:32.719Z,99199.63
2019-05-22T00:25:03.703Z,99202.51
2019-05-22T00:27:34.898Z,99208.23
2019-05-22T00:30:05.794Z,99208.41
2019-05-22T00:32:36.152Z,99213.70
2019-05-22T00:35:05.135Z,99209.89
2019-05-22T00:37:33.671Z,99212.64
2019-05-22T00:40:03.388Z,99212.25
2019-05-22T00:42:32.470Z,99214.75
2019-05-22T00:45:02.005Z,99221.11
2019-05-22T00:47:33.042Z,99223.13
2019-05-22T00:50:03.537Z,99224.78
2019-05-22T00:53:01.651Z,99229.44
2019-05-22T00:55:57.223Z,99225.40
2019-05-22T00:58:50.652Z,99227.80
2019-05-22T01:01:29.903Z,99226.30
2019-05-22T01:03:58.260Z,99227.24
2019-05-22T01:06:29.332Z,99232.18
2019-05-22T01:08:59.651Z,99235.25
2019-05-22T01:11:28.501Z,99234.22
2019-05-22T01:14:08.626Z,99235.71
2019-05-22T01:16:36.354Z,99226.53
2019-05-22T01:19:06.122Z,99232.79
2019-05-22T01:21:36.166Z,99229.51
2019-05-22T01:24:06.428Z,99229.52
2019-05-22T01:26:35.161Z,99232.38
2019-05-22T01:29:04.018Z,99236.23
2019-05-22T01:31:37.511Z,99234.86
2019-05-22T01:34:11.653Z,99233.73
2019-05-22T01:36:46.355Z,99240.17
2019-05-22T01:39:32.709Z,99244.42
2019-05-22T01:42:03.604Z,99248.03
2019-05-22T01:44:33.907Z,99254.29
2019-05-22T01:47:11.465Z,99253.10
2019-05-22T01:49:50.936Z,99246.66
2019-05-22T01:52:19.714Z,99254.01
2019-05-22T01:54:47.807Z,99255.74
2019-05-22T01:57:16.127Z,99251.83
2019-05-22T01:59:44.644Z,99254.27
2019-05-22T02:02:13.881Z,99256.14
2019-05-22T02:04:41.837Z,99255.89
2019-05-22T02:07:10.860Z,99255.68
2019-05-22T02:09:41.687Z,99253.23
2019-05-22T02:12:23.883Z,99254.91
2019-05-22T02:14:52.242Z,99253.28
2019-05-22T02:17:27.116Z,99250.45
2019-05-22T02:19:57.172Z,99255.66
2019-05-22T02:22:26.055Z,99254.27
2019-05-22T02:24:54.250Z,99258.27
2019-05-22T02:27:23.467Z,99262.70
2019-05-22T02:29:54.267Z,99263.16
2019-05-22T02:32:23.532Z,99272.77
2019-05-22T02:34:51.667Z,99272.77
2019-05-22T02:37:21.381Z,99273.27
2019-05-22T02:39:49.766Z,99265.47
2019-05-22T02:42:25.824Z,99264.64
2019-05-22T02:44:53.865Z,99266.60
2019-05-22T02:47:25.346Z,99270.11
2019-05-22T02:49:55.341Z,99266.33
2019-05-22T02:52:23.589Z,99268.15
2019-05-22T02:54:51.756Z,99264.70
2019-05-22T02:57:19.936Z,99265.58
2019-05-22T02:59:47.768Z,99271.54
2019-05-22T03:02:17.482Z,99273.55
2019-05-22T03:05:06.569Z,99271.92
2019-05-22T03:07:35.355Z,99273.08
2019-05-22T03:10:04.741Z,99273.91
2019-05-22T03:12:36.022Z,99283.20
2019-05-22T03:15:10.361Z,99282.92
2019-05-22T03:17:40.208Z,99282.95
2019-05-22T03:20:12.747Z,99283.95
2019-05-22T03:23:30.637Z,99289.42
2019-05-22T03:25:59.925Z,99290.36
2019-05-22T03:28:28.528Z,99294.63
2019-05-22T03:30:56.336Z,99298.98
2019-05-22T03:33:24.286Z,99297.80
2019-05-22T03:36:06.090Z,99299.77
2019-05-22T03:38:34.433Z,99297.44
2019-05-22T03:41:03.477Z,99303.18
2019-05-22T03:43:31.584Z,99303.44
2019-05-22T03:46:10.308Z,99301.06
2019-05-22T03:48:38.090Z,99304.04
2019-05-22T03:51:14.339Z,99306.05
2019-05-22T03:53:43.169Z,99306.08
2019-05-22T03:56:12.759Z,99310.13
2019-05-22T03:58:40.540Z,99306.14
2019-05-22T04:01:09.557Z,99309.97
2019-05-22T04:03:45.079Z,99315.13
2019-05-22T04:06:15.560Z,99248.62
2019-05-22T04:08:44.867Z,99317.80
2019-05-22T04:11:14.165Z,99321.53
2019-05-22T04:13:42.074Z,99323.68
2019-05-22T04:16:13.069Z,99326.88
2019-05-22T04:18:40.903Z,99328.06
2019-05-22T04:21:08.833Z,99329.47
2019-05-22T04:23:37.621Z,99335.91
2019-05-22T04:26:08.807Z,99335.09
2019-05-22T04:28:47.578Z,99337.02
2019-05-22T04:31:16.286Z,99334.56
2019-05-22T04:33:44.430Z,99332.47
2019-05-22T04:36:13.261Z,99338.92
2019-05-22T04:38:42.213Z,99338.73
2019-05-22T04:41:10.220Z,99340.52
2019-05-22T04:43:38.131Z,99343.70
2019-05-22T04:46:09.080Z,99341.08
2019-05-22T04:48:37.586Z,99341.33
2019-05-22T04:51:40.374Z,99337.19
2019-05-22T04:54:08.232Z,99337.03
2019-05-22T04:56:36.376Z,99334.91
2019-05-22T04:59:04.765Z,99345.25
2019-05-22T05:01:33.659Z,99349.44
2019-05-22T05:04:03.386Z,99346.71
2019-05-22T05:06:37.608Z,99351.59
2019-05-22T05:09:12.154Z,99351.20
2019-05-22T05:12:01.400Z,99352.83
2019-05-22T05:14:29.964Z,99361.21
2019-05-22T05:16:57.847Z,99358.81
2019-05-22T05:19:26.420Z,99357.41
2019-05-22T05:21:55.033Z,99357.05
2019-05-22T05:24:23.423Z,99356.58
2019-05-22T05:26:52.437Z,99360.27
2019-05-22T05:29:28.840Z,99362.04
2019-05-22T05:31:58.236Z,99357.73
2019-05-22T05:34:58.648Z,99360.34
2019-05-22T05:37:26.666Z,99359.81
2019-05-22T05:40:43.540Z,99368.39
2019-05-22T05:43:14.494Z,99365.33
2019-05-22T05:45:45.110Z,99368.42
2019-05-22T05:48:20.900Z,99373.11
2019-05-22T05:51:35.291Z,99375.31
2019-05-22T05:54:18.400Z,99378.35
2019-05-22T05:56:47.772Z,99378.84
2019-05-22T05:59:19.116Z,99380.30
2019-05-22T06:01:50.576Z,99381.08
2019-05-22T06:04:52.133Z,99384.01
2019-05-22T06:07:22.227Z,99383.13
2019-05-22T06:10:38.890Z,99394.30
2019-05-22T06:13:06.910Z,99392.75
2019-05-22T06:15:59.733Z,99395.67
2019-05-22T06:18:37.867Z,99393.14
2019-05-22T06:21:08.074Z,99401.20
2019-05-22T06:24:44.830Z,99404.22
2019-05-22T06:27:30.850Z,99409.96
2019-05-22T06:30:04.674Z,99416.81
2019-05-22T06:33:27.222Z,99415.19
2019-05-22T06:35:55.243Z,99415.73
2019-05-22T06:39:02.351Z,99418.99
2019-05-22T06:41:34.456Z,99419.77
2019-05-22T06:44:30.212Z,99416.66
2019-05-22T06:46:58.580Z,99415.63
2019-05-22T06:49:54.040Z,99412.95
2019-05-22T06:52:32.256Z,99416.75
2019-05-22T06:55:00.319Z,99414.92
2019-05-22T06:57:33.700Z,99418.06
2019-05-22T07:00:22.550Z,99420.16
2019-05-22T07:02:50.545Z,99424.78
2019-05-22T07:05:19.005Z,99418.88
2019-05-22T07:07:47.566Z,99424.20
2019-05-22T07:10:15.874Z,99424.88
2019-05-22T07:12:43.729Z,99425.90
2019-05-22T07:15:43.518Z,99422.45
2019-05-22T07:18:14.291Z,99430.23
2019-05-22T07:20:45.069Z,99434.77
2019-05-22T07:23:16.320Z,99432.66
2019-05-22T07:25:45.896Z,99425.11
2019-05-22T07:28:17.336Z,99424.69
2019-05-22T07:30:45.280Z,99429.50
2019-05-22T07:33:13.895Z,99423.34
2019-05-22T07:36:04.793Z,99424.28
2019-05-22T07:38:13.222Z,99418.52
2019-05-22T07:40:41.967Z,99424.47
2019-05-22T07:43:09.747Z,99426.32
2019-05-22T07:45:37.925Z,99433.10
2019-05-22T07:48:06.624Z,99428.20
2019-05-22T07:50:37.769Z,99431.27
2019-05-22T07:53:06.711Z,99437.70
2019-05-22T07:55:35.337Z,99440.31
2019-05-22T07:58:14.619Z,99441.16
2019-05-22T08:00:49.345Z,99441.38
2019-05-22T08:03:24.381Z,99438.39
2019-05-22T08:05:55.419Z,99439.75
2019-05-22T08:08:24.984Z,99445.48
2019-05-22T08:10:53.820Z,99443.67
2019-05-22T08:13:22.129Z,99439.03
2019-05-22T08:15:50.663Z,99434.53
2019-05-22T08:18:19.672Z,99429.94
2019-05-22T08:20:47.911Z,99433.26
2019-05-22T08:23:15.739Z,99442.02
2019-05-22T08:25:43.729Z,99445.77
2019-05-22T08:28:13.465Z,99442.45
2019-05-22T08:30:41.470Z,99434.60
2019-05-22T08:33:13.556Z,99436.17
2019-05-22T08:35:41.722Z,99428.66
2019-05-22T08:38:11.693Z,99433.08
2019-05-22T08:40:40.403Z,99435.02
2019-05-22T08:43:08.850Z,99428.50
2019-05-22T08:45:37.767Z,99427.39
2019-05-22T08:48:07.341Z,99428.53
2019-05-22T08:50:37.167Z,99439.24
2019-05-22T08:53:06.300Z,99437.69
2019-05-22T08:55:34.997Z,99442.44
2019-05-22T08:58:03.885Z,99445.81
2019-05-22T09:00:31.980Z,99456.50
2019-05-22T09:03:00.673Z,99457.90
2019-05-22T09:05:28.653Z,99465.42
2019-05-22T09:07:56.529Z,99466.93
2019-05-22T09:10:26.257Z,99466.86
2019-05-22T09:12:54.454Z,99467.55
2019-05-22T09:15:22.987Z,99473.39
2019-05-22T09:17:51.010Z,99474.89
2019-05-22T09:20:20.909Z,99473.91
2019-05-22T09:22:48.717Z,99480.25
2019-05-22T09:25:19.899Z,99477.84
2019-05-22T09:27:48.077Z,99477.48
2019-05-22T09:30:20.209Z,99474.94
2019-05-22T09:32:48.176Z,99476.36
2019-05-22T09:35:16.170Z,99479.48
2019-05-22T09:37:43.983Z,99478.79
2019-05-22T09:40:12.516Z,99480.83
2019-05-22T09:42:40.601Z,99483.60
2019-05-22T09:45:09.110Z,99487.50
2019-05-22T09:47:40.018Z,99485.38
2019-05-22T09:50:10.498Z,99489.45
2019-05-22T09:52:38.710Z,99487.45
2019-05-22T09:55:07.474Z,99487.75
2019-05-22T09:57:35.357Z,99492.12
2019-05-22T10:00:06.947Z,99487.41
2019-05-22T10:02:35.226Z,99486.13
2019-05-22T10:05:04.570Z,99488.11
2019-05-22T10:07:32.591Z,99487.20
2019-05-22T10:10:00.511Z,99492.89
2019-05-22T10:12:28.440Z,99492.44
2019-05-22T10:14:56.405Z,99498.25
2019-05-22T10:17:24.425Z,99500.09
2019-05-22T10:19:52.408Z,99508.72
2019-05-22T10:22:23.443Z,99507.59
2019-05-22T10:24:52.090Z,99504.25
2019-05-22T10:27:20.880Z,99505.41
2019-05-22T10:29:48.918Z,99506.36
2019-05-22T10:32:16.952Z,99508.30
2019-05-22T10:34:44.797Z,99507.67
2019-05-22T10:37:12.748Z,99505.37
2019-05-22T10:39:41.388Z,99510.16
2019-05-22T10:42:09.148Z,99507.91
2019-05-22T10:44:37.066Z,99506.27
2019-05-22T10:47:07.330Z,99508.42
2019-05-22T10:49:35.235Z,99503.58
2019-05-22T10:52:04.211Z,99504.95
2019-05-22T10:54:31.954Z,99504.53
2019-05-22T10:57:00.539Z,99503.17
2019-05-22T10:59:28.448Z,99504.44
2019-05-22T11:01:56.594Z,99503.44
2019-05-22T11:04:24.730Z,99497.72
2019-05-22T11:06:53.412Z,99500.39
2019-05-22T11:09:21.777Z,99494.22
2019-05-22T11:11:49.840Z,99492.59
2019-05-22T11:14:17.892Z,99483.77
2019-05-22T11:16:46.290Z,99471.31
2019-05-22T11:19:14.327Z,99477.16
2019-05-22T11:21:42.826Z,99488.45
2019-05-22T11:24:11.214Z,99479.03
2019-05-22T11:26:39.246Z,99463.84
2019-05-22T11:29:08.118Z,99469.45
2019-05-22T11:31:36.779Z,99462.78
2019-05-22T11:34:06.193Z,99466.06
2019-05-22T11:36:34.313Z,99471.23
2019-05-22T11:39:02.302Z,99469.34
2019-05-22T11:41:30.119Z,99472.41
2019-05-22T11:43:58.037Z,99472.27
2019-05-22T11:46:26.417Z,99476.86
2019-05-22T11:48:54.710Z,99482.91
2019-05-22T11:51:22.494Z,99487.00
2019-05-22T11:54:10.154Z,99473.85
2019-05-22T11:56:38.161Z,99474.34
2019-05-22T11:59:07.265Z,99479.73
2019-05-22T12:01:35.195Z,99473.91
2019-05-22T12:04:04.504Z,99481.70
2019-05-22T12:06:33.093Z,99480.19
2019-05-22T12:09:01.115Z,99488.07
2019-05-22T12:11:29.368Z,99492.36
2019-05-22T12:14:01.035Z,99493.45
2019-05-22T12:16:29.327Z,99495.08
2019-05-22T12:18:58.895Z,99504.09
2019-05-22T12:21:27.697Z,99516.11
2019-05-22T12:23:55.808Z,99510.14
2019-05-22T12:26:23.918Z,99511.99
2019-05-22T12:28:51.804Z,99500.89
2019-05-22T12:31:20.290Z,99501.36
2019-05-22T12:33:48.582Z,99493.67
2019-05-22T12:36:17.955Z,99502.12
2019-05-22T12:38:45.986Z,99498.56
2019-05-22T12:41:17.345Z,99501.52
2019-05-22T12:43:46.669Z,99505.03
2019-05-22T12:46:15.697Z,99500.92
2019-05-22T12:48:44.660Z,99505.08
2019-05-22T12:51:13.698Z,99509.05
2019-05-22T12:53:42.223Z,99504.16
2019-05-22T12:56:10.641Z,99519.09
2019-05-22T12:58:39.593Z,99517.62
2019-05-22T13:01:07.721Z,99526.45
2019-05-22T13:03:41.128Z,99536.61
2019-05-22T13:06:15.089Z,99541.28
2019-05-22T13:08:53.840Z,99527.09
2019-05-22T13:11:25.309Z,99548.30
2019-05-22T13:13:53.670Z,99540.30
2019-05-22T13:16:21.716Z,99537.69
2019-05-22T13:18:50.944Z,99539.92
2019-05-22T13:21:23.509Z,99534.56
2019-05-22T13:23:52.822Z,99536.01
2019-05-22T13:26:23.200Z,99534.38
2019-05-22T13:28:52.465Z,99540.92
2019-05-22T13:31:21.319Z,99539.22
2019-05-22T13:33:52.348Z,99538.13
2019-05-22T13:36:23.110Z,99540.34
2019-05-22T13:38:51.182Z,99541.56
2019-05-22T13:41:19.422Z,99541.23
2019-05-22T13:43:49.206Z,99547.55
2019-05-22T13:46:17.889Z,99545.92
2019-05-22T13:48:46.762Z,99550.55
2019-05-22T13:51:15.439Z,99549.47
2019-05-22T13:53:44.301Z,99554.52
2019-05-22T13:56:14.497Z,99561.97
2019-05-22T13:58:42.939Z,99565.23
2019-05-22T14:01:11.165Z,99563.83
2019-05-22T14:03:39.528Z,99570.25
2019-05-22T14:06:08.417Z,99567.91
2019-05-22T14:08:36.504Z,99568.01
2019-05-22T14:11:05.385Z,99570.13
2019-05-22T14:13:33.829Z,99568.40
2019-05-22T14:16:01.664Z,99569.70
2019-05-22T14:18:30.172Z,99562.84
2019-05-22T14:20:58.425Z,99568.04
2019-05-22T14:23:26.882Z,99566.66
2019-05-22T14:25:55.013Z,99547.80
2019-05-22T14:28:24.677Z,99570.81
2019-05-22T14:30:53.526Z,99574.54
2019-05-22T14:33:28.016Z,99574.69
2019-05-22T14:35:56.575Z,99579.80
2019-05-22T14:38:25.779Z,99578.27
2019-05-22T14:40:53.692Z,99576.88
2019-05-22T14:43:21.561Z,99575.06
2019-05-22T14:45:49.514Z,99576.30
2019-05-22T14:48:18.170Z,99574.92
2019-05-22T14:50:46.315Z,99574.41
2019-05-22T14:53:15.886Z,99576.73
2019-05-22T14:55:44.769Z,99576.14
2019-05-22T14:58:14.166Z,99582.11
2019-05-22T15:00:45.331Z,99581.36
2019-05-22T15:03:13.882Z,99581.20
2019-05-22T15:05:41.732Z,99577.58
2019-05-22T15:08:09.858Z,99578.04
2019-05-22T15:10:38.613Z,99580.03
2019-05-22T15:13:07.879Z,99584.34
2019-05-22T15:15:40.278Z,99580.83
2019-05-22T15:18:06.521Z,99578.19
2019-05-22T15:20:53.686Z,99576.34
2019-05-22T15:23:22.155Z,99582.97
2019-05-22T15:25:50.367Z,99583.28
2019-05-22T15:28:21.781Z,99586.30
2019-05-22T15:30:50.226Z,99587.63
2019-05-22T15:33:18.576Z,99581.48
2019-05-22T15:35:47.250Z,99574.70
2019-05-22T15:38:15.664Z,99580.88
2019-05-22T15:40:44.344Z,99578.80
2019-05-22T15:43:14.859Z,99575.82
2019-05-22T15:45:43.334Z,99580.20
2019-05-22T15:48:19.737Z,99577.83
2019-05-22T15:50:51.027Z,99583.70
2019-05-22T15:53:31.977Z,99583.16
2019-05-22T15:56:02.519Z,99577.52
2019-05-22T15:58:32.059Z,99575.05
2019-05-22T16:01:00.215Z,99571.36
2019-05-22T16:03:29.466Z,99572.91
2019-05-22T16:05:58.529Z,99572.80
2019-05-22T16:08:26.875Z,99568.94
2019-05-22T16:10:59.957Z,99567.40
2019-05-22T16:13:31.060Z,99567.98
2019-05-22T16:16:00.167Z,99571.91
2019-05-22T16:18:31.533Z,99570.95
2019-05-22T16:21:01.933Z,99567.37
2019-05-22T16:23:32.064Z,99572.41
2019-05-22T16:26:02.021Z,99568.13
2019-05-22T16:28:36.030Z,99569.72
2019-05-22T16:31:05.285Z,99570.28
2019-05-22T16:33:35.109Z,99572.27
2019-05-22T16:36:03.459Z,99569.91
2019-05-22T16:38:31.568Z,99569.13
2019-05-22T16:41:00.183Z,99567.71
2019-05-22T16:43:47.458Z,99562.94
2019-05-22T16:46:00.489Z,99566.34
2019-05-22T16:48:29.636Z,99567.89
2019-05-22T16:50:58.480Z,99564.59
2019-05-22T16:53:27.406Z,99568.20
2019-05-22T16:55:56.823Z,99572.45
2019-05-22T16:58:26.191Z,99566.87
2019-05-22T17:00:56.598Z,99565.66
2019-05-22T17:03:30.591Z,99560.00
2019-05-22T17:05:59.722Z,99569.95
2019-05-22T17:08:28.925Z,99568.16
2019-05-22T17:10:57.972Z,99565.59
2019-05-22T17:13:28.805Z,99567.28
2019-05-22T17:15:57.033Z,99567.47
2019-05-22T17:18:26.778Z,99570.98
2019-05-22T17:20:57.556Z,99577.25
2019-05-22T17:23:25.589Z,99551.48
2019-05-22T17:25:55.421Z,99572.95
2019-05-22T17:28:24.026Z,99568.27
2019-05-22T17:30:52.499Z,99578.04
2019-05-22T17:33:20.468Z,99579.62
2019-05-22T17:35:48.356Z,99583.16
2019-05-22T17:38:17.295Z,99579.13
2019-05-22T17:40:46.054Z,99578.58
2019-05-22T17:43:14.513Z,99541.86
2019-05-22T17:45:44.170Z,99582.11
2019-05-22T17:48:13.258Z,99579.16
2019-05-22T17:50:42.492Z,99579.78
2019-05-22T17:53:11.949Z,99583.28
2019-05-22T17:55:41.134Z,99586.62
2019-05-22T17:58:10.102Z,99583.78
2019-05-22T18:00:40.386Z,99585.41
2019-05-22T18:03:08.475Z,99586.70
2019-05-22T18:05:36.867Z,99590.36
2019-05-22T18:08:05.219Z,99589.31
2019-05-22T18:10:40.138Z,99589.16
2019-05-22T18:13:08.128Z,99589.95
2019-05-22T18:15:36.260Z,99595.23
2019-05-22T18:18:05.662Z,99595.69
2019-05-22T18:20:42.391Z,99592.33
2019-05-22T18:23:04.795Z,99598.27
2019-05-22T18:25:33.041Z,99599.48
2019-05-22T18:28:02.281Z,99604.73
2019-05-22T18:30:31.850Z,99604.05
2019-05-22T18:32:59.924Z,99604.39
2019-05-22T18:35:27.900Z,99603.41
2019-05-22T18:37:56.123Z,99610.04
2019-05-22T18:40:24.176Z,99610.30
2019-05-22T18:42:52.114Z,99612.72
2019-05-22T18:45:22.466Z,99616.09
2019-05-22T18:47:50.410Z,99622.67
2019-05-22T18:50:18.875Z,99627.73
2019-05-22T18:52:49.581Z,99627.45
2019-05-22T18:55:18.007Z,99628.81
2019-05-22T18:57:46.351Z,99633.13
2019-05-22T19:00:15.585Z,99635.86
2019-05-22T19:02:44.199Z,99636.66
2019-05-22T19:05:12.260Z,99637.56
2019-05-22T19:07:40.127Z,99642.67
2019-05-22T19:10:08.803Z,99645.09
2019-05-22T19:12:37.233Z,99651.78
2019-05-22T19:15:05.874Z,99656.23
2019-05-22T19:17:35.869Z,99656.18
2019-05-22T19:20:05.203Z,99659.72
2019-05-22T19:22:33.517Z,99659.69
2019-05-22T19:25:01.491Z,99660.76
2019-05-22T19:27:29.551Z,99658.87
2019-05-22T19:29:57.518Z,99666.53
2019-05-22T19:32:25.457Z,99671.91
2019-05-22T19:34:53.399Z,99681.41
2019-05-22T19:37:21.637Z,99677.64
2019-05-22T19:39:50.159Z,99681.66
2019-05-22T19:42:18.334Z,99684.72
2019-05-22T19:44:48.838Z,99687.53
2019-05-22T19:47:18.072Z,99689.70
2019-05-22T19:49:45.935Z,99691.50
2019-05-22T19:52:15.301Z,99695.74
2019-05-22T19:54:43.599Z,99694.61
2019-05-22T19:57:11.694Z,99697.52
2019-05-22T19:59:39.831Z,99694.36
2019-05-22T20:02:09.881Z,99694.12
2019-05-22T20:04:38.305Z,99699.17
2019-05-22T20:07:06.905Z,99700.56
2019-05-22T20:09:34.770Z,99704.63
2019-05-22T20:12:04.681Z,99704.70
2019-05-22T20:14:32.615Z,99710.41
2019-05-22T20:17:02.345Z,99710.18
2019-05-22T20:19:31.105Z,99710.44
2019-05-22T20:22:00.463Z,99711.64
2019-05-22T20:24:29.280Z,99710.83
2019-05-22T20:26:57.076Z,99714.54
2019-05-22T20:29:31.250Z,99716.89
2019-05-22T20:32:00.023Z,99715.98
2019-05-22T20:34:28.706Z,99714.39
2019-05-22T20:36:57.315Z,99714.23
2019-05-22T20:39:29.464Z,99720.84
2019-05-22T20:41:56.580Z,99719.39
2019-05-22T20:44:24.416Z,99725.72
2019-05-22T20:46:52.734Z,99728.55
2019-05-22T20:49:20.686Z,99720.51
2019-05-22T20:51:49.266Z,99724.97
2019-05-22T20:54:18.131Z,99727.30
2019-05-22T20:56:49.602Z,99731.28
2019-05-22T20:59:17.925Z,99731.15
2019-05-22T21:01:46.365Z,99729.84
2019-05-22T21:04:16.542Z,99731.15
2019-05-22T21:06:59.885Z,99738.75
2019-05-22T21:09:27.439Z,99739.92
2019-05-22T21:11:55.724Z,99741.23
2019-05-22T21:14:25.051Z,99736.79
2019-05-22T21:16:53.513Z,99743.05
2019-05-22T21:19:23.725Z,99743.55
2019-05-22T21:21:55.376Z,99739.45
2019-05-22T21:24:23.254Z,99745.85
2019-05-22T21:26:51.541Z,99743.73
2019-05-22T21:29:19.357Z,99751.94
2019-05-22T21:31:48.152Z,99757.39
2019-05-22T21:34:16.135Z,99759.70
2019-05-22T21:36:44.133Z,99757.71
2019-05-22T21:39:13.067Z,99760.35
2019-05-22T21:41:40.987Z,99763.14
2019-05-22T21:44:10.101Z,99760.49
2019-05-22T21:46:38.367Z,99756.23
2019-05-22T21:49:08.143Z,99754.89
2019-05-22T21:51:36.328Z,99757.34
2019-05-22T21:54:05.693Z,99760.30
2019-05-22T21:56:33.609Z,99762.91
2019-05-22T21:59:02.340Z,99767.33
2019-05-22T22:01:34.291Z,99766.53
2019-05-22T22:04:16.719Z,99768.14
2019-05-22T22:06:44.907Z,99767.29
2019-05-22T22:09:13.900Z,99764.98
2019-05-22T22:11:43.065Z,99769.27
2019-05-22T22:14:10.962Z,99773.52
2019-05-22T22:16:40.491Z,99774.48
2019-05-22T22:19:10.920Z,99773.32
2019-05-22T22:21:39.355Z,99773.64
2019-05-22T22:24:08.794Z,99776.45
2019-05-22T22:26:36.830Z,99779.06
2019-05-22T22:29:04.981Z,99779.55
2019-05-22T22:31:35.612Z,99779.34
2019-05-22T22:34:15.509Z,99778.33
2019-05-22T22:36:43.930Z,99779.48
2019-05-22T22:39:14.369Z,99781.41
2019-05-22T22:41:45.560Z,99782.21
2019-05-22T22:44:14.353Z,99784.98
2019-05-22T22:46:55.602Z,99790.23
2019-05-22T22:49:27.589Z,99789.20
2019-05-22T22:51:57.010Z,99789.00
2019-05-22T22:54:27.524Z,99792.63
2019-05-22T22:56:55.593Z,99790.64
2019-05-22T22:59:23.535Z,99792.10
2019-05-22T23:01:55.029Z,99798.98
2019-05-22T23:04:33.626Z,99801.44
2019-05-22T23:07:07.402Z,99801.78
2019-05-22T23:09:38.467Z,99802.44
2019-05-22T23:12:09.216Z,99808.03
2019-05-22T23:14:43.919Z,99807.53
2019-05-22T23:17:12.688Z,99812.27
2019-05-22T23:19:42.483Z,99808.83
2019-05-22T23:22:28.595Z,99809.45
2019-05-22T23:24:59.314Z,99812.23
2019-05-22T23:27:28.516Z,99808.43
2019-05-22T23:29:56.959Z,99812.51
2019-05-22T23:32:25.036Z,99812.45
2019-05-22T23:34:56.041Z,99809.83
2019-05-22T23:37:25.721Z,99812.56
2019-05-22T23:39:53.733Z,99809.09
2019-05-22T23:42:31.720Z,99812.69
2019-05-22T23:45:02.941Z,99811.52
2019-05-22T23:47:31.356Z,99806.39
2019-05-22T23:49:59.117Z,99807.52
2019-05-22T23:52:27.213Z,99804.70
2019-05-22T23:54:55.289Z,99808.97
2019-05-22T23:57:23.696Z,99814.35
